Time;durP1;ratioP1;P1;durP2;ratioP2;P2;SDS_P1;SDS_P2;PMS_P1;PMS_P2;Temp;Humidity;BMP_temperature;BMP_pressure;BME280_temperature;BME280_humidity;BME280_pressure;Samples;Min_cycle;Max_cycle;Signal;HPM_P1;HPM_P2
2022/07/26 00:01:58;;;;;;;7.00;3.40;;;;;;;22.62;40.83;99604.61;108143;1278;22333;-78
2022/07/26 00:04:32;;;;;;;4.50;3.00;;;;;;;22.61;40.83;99599.88;108116;1278;23105;-77
2022/07/26 00:07:04;;;;;;;6.10;3.20;;;;;;;22.59;40.77;99595.40;108079;1276;23737;-78
2022/07/26 00:09:47;;;;;;;9.70;3.60;;;;;;;22.55;41.01;99590.76;108515;1273;23091;-78
2022/07/26 00:12:17;;;;;;;8.30;3.60;;;;;;;22.53;40.98;99591.95;108485;1273;22096;-77
2022/07/26 00:14:52;;;;;;;7.20;4.10;;;;;;;22.49;41.12;99593.27;108651;1273;22001;-77
2022/07/26 00:17:22;;;;;;;9.00;4.50;;;;;;;22.47;41.22;99589.88;108486;1273;21983;-77
2022/07/26 00:19:51;;;;;;;15.10;4.10;;;;;;;22.45;41.31;99583.84;108627;1273;22007;-78
2022/07/26 00:22:37;;;;;;;8.40;3.70;;;;;;;22.41;41.46;99578.18;108525;1270;22004;-76
2022/07/26 00:25:09;;;;;;;5.70;3.80;;;;;;;22.37;41.49;99572.73;109090;1263;21992;-78
2022/07/26 00:27:40;;;;;;;;;;;;;;;22.34;41.61;99570.14;109686;1264;23838;-77
2022/07/26 00:30:13;;;;;;;6.00;3.80;;;;;;;22.24;41.95;99569.89;109216;1264;23046;-76
2022/07/26 00:32:46;;;;;;;9.00;3.80;;;;;;;22.21;41.96;99566.11;109097;1264;22740;-78
2022/07/26 00:35:15;;;;;;;10.50;3.80;;;;;;;22.22;41.97;99559.66;108676;1273;22050;-77
2022/07/26 00:37:49;;;;;;;7.80;4.00;;;;;;;22.22;41.91;99557.51;108407;1276;22001;-78
2022/07/26 00:40:18;;;;;;;9.10;4.00;;;;;;;22.22;42.00;99551.48;108370;1276;23599;-78
2022/07/26 00:42:50;;;;;;;6.10;3.50;;;;;;;22.21;42.06;99550.78;108357;1276;22132;-80
2022/07/26 00:45:23;;;;;;;4.90;3.70;;;;;;;22.19;42.25;99548.78;108437;1276;22983;-79
2022/07/26 00:47:54;;;;;;;10.00;3.40;;;;;;;22.17;42.31;99549.69;108416;1273;22779;-80
2022/07/26 00:50:27;;;;;;;4.80;3.50;;;;;;;22.16;42.46;99549.84;108525;1273;23729;-78
2022/07/26 00:53:04;;;;;;;6.80;3.20;;;;;;;22.13;42.28;99547.61;108443;1273;23119;-79
2022/07/26 00:55:35;;;;;;;6.20;3.20;;;;;;;22.11;42.44;99550.81;108770;1267;23583;-79
2022/07/26 00:58:12;;;;;;;8.70;3.70;;;;;;;22.09;42.64;99550.10;108400;1276;22028;-77
2022/07/26 01:01:01;;;;;;;9.50;3.80;;;;;;;22.07;42.67;99549.63;108661;1273;21986;-76
2022/07/26 01:03:40;;;;;;;5.00;3.10;;;;;;;22.07;42.67;99547.63;108627;1273;21985;-79
2022/07/26 01:06:16;;;;;;;7.00;3.60;;;;;;;22.04;42.88;99551.65;108512;1273;23072;-79
2022/07/26 01:09:05;;;;;;;7.20;3.20;;;;;;;22.01;42.97;99549.16;108410;1276;22008;-79
2022/07/26 01:11:41;;;;;;;7.60;3.20;;;;;;;21.99;43.03;99549.64;108509;1273;22003;-80
2022/07/26 01:14:19;;;;;;;5.40;3.60;;;;;;;21.96;43.24;99545.10;108394;1276;22070;-80
2022/07/26 01:16:56;;;;;;;6.50;4.00;;;;;;;21.94;43.19;99539.94;108584;1273;23086;-79
2022/07/26 01:19:29;;;;;;;8.00;3.30;;;;;;;21.92;43.37;99537.45;108386;1279;21986;-79
2022/07/26 01:22:07;;;;;;;6.80;3.30;;;;;;;21.90;43.59;99534.70;108254;1279;23102;-81
2022/07/26 01:24:48;;;;;;;5.30;3.40;;;;;;;21.86;43.76;99524.46;108020;1279;22952;-79
2022/07/26 01:27:17;;;;;;;5.10;3.70;;;;;;;21.83;43.85;99514.23;107813;1285;23063;-79
2022/07/26 01:29:51;;;;;;;5.40;3.90;;;;;;;21.81;43.89;99509.39;107668;1285;22154;-79
2022/07/26 01:32:21;;;;;;;3.80;3.00;;;;;;;21.79;43.90;99505.95;107831;1282;22017;-80
2022/07/26 01:34:51;;;;;;;6.00;4.60;;;;;;;21.77;43.98;99508.73;107747;1281;23172;-79
2022/07/26 01:37:27;;;;;;;4.60;2.90;;;;;;;21.75;44.12;99515.86;108137;1279;23857;-78
2022/07/26 01:40:06;;;;;;;4.90;3.20;;;;;;;21.72;44.22;99517.61;108336;1279;22034;-79
2022/07/26 01:42:39;;;;;;;7.80;3.80;;;;;;;21.70;44.23;99517.17;108434;1273;21991;-78
2022/07/26 01:45:11;;;;;;;6.30;3.70;;;;;;;21.70;44.33;99520.52;108608;1267;21976;-79
2022/07/26 01:47:41;;;;;;;6.00;3.60;;;;;;;21.68;44.42;99522.49;108427;1273;22028;-79
2022/07/26 01:50:30;;;;;;;5.00;3.70;;;;;;;21.67;44.48;99519.58;108440;1273;22780;-79
2022/07/26 01:53:12;;;;;;;5.80;3.20;;;;;;;21.64;44.53;99509.47;108602;1270;22043;-78
2022/07/26 01:55:44;;;;;;;11.00;3.80;;;;;;;21.61;44.63;99508.11;108670;1273;23076;-79
2022/07/26 01:58:22;;;;;;;5.10;3.40;;;;;;;21.59;44.70;99511.16;108543;1273;23194;-79
2022/07/26 02:00:59;;;;;;;;;;;;;;;21.58;44.84;99511.85;108394;1273;23062;-79
2022/07/26 02:03:28;;;;;;;6.90;3.40;;;;;;;21.51;45.09;99509.72;108645;1273;23107;-79
2022/07/26 02:06:05;;;;;;;6.00;3.40;;;;;;;21.49;45.03;99509.77;108477;1274;22989;-78
2022/07/26 02:08:36;;;;;;;6.60;4.10;;;;;;;21.50;45.06;99506.12;108431;1276;21995;-78
2022/07/26 02:11:10;;;;;;;6.30;3.30;;;;;;;21.50;45.09;99510.85;108445;1276;23658;-79
2022/07/26 02:13:44;;;;;;;10.00;4.20;;;;;;;21.51;45.19;99513.22;109059;1267;23599;-79
2022/07/26 02:16:22;;;;;;;4.40;3.40;;;;;;;21.52;45.26;99508.55;109134;1261;23609;-79
2022/07/26 02:19:00;;;;;;;8.00;3.60;;;;;;;21.53;45.12;99506.35;109290;1261;22057;-78
2022/07/26 02:21:39;;;;;;;5.00;3.90;;;;;;;21.55;45.16;99510.12;109258;1261;21968;-77
2022/07/26 02:24:12;;;;;;;5.60;3.60;;;;;;;21.57;45.10;99509.06;109847;1261;23588;-79
2022/07/26 02:26:47;;;;;;;5.80;3.70;;;;;;;21.58;45.00;99508.20;109549;1261;21987;-78
2022/07/26 02:29:18;;;;;;;7.30;3.70;;;;;;;21.58;44.98;99509.39;109277;1263;21979;-78
2022/07/26 02:31:50;;;;;;;6.40;3.70;;;;;;;21.57;45.00;99511.05;109154;1262;21984;-78
2022/07/26 02:34:23;;;;;;;5.90;3.90;;;;;;;21.57;45.01;99510.55;109632;1263;23095;-77
2022/07/26 02:36:52;;;;;;;7.10;4.70;;;;;;;21.57;45.12;99506.54;109369;1263;22029;-78
2022/07/26 02:39:28;;;;;;;9.20;5.30;;;;;;;21.60;45.12;99502.56;109712;1261;23818;-79
2022/07/26 02:42:07;;;;;;;8.40;5.60;;;;;;;21.61;45.17;99503.97;108969;1267;23769;-79
2022/07/26 02:44:40;;;;;;;10.20;5.10;;;;;;;21.64;45.15;99500.65;109105;1267;22030;-78
2022/07/26 02:47:18;;;;;;;7.90;5.10;;;;;;;21.67;45.08;99506.80;109046;1268;22291;-79
2022/07/26 02:49:48;;;;;;;6.80;4.70;;;;;;;21.68;45.15;99509.75;108679;1273;21982;-79
2022/07/26 02:52:20;;;;;;;9.30;3.50;;;;;;;21.70;45.08;99519.00;108791;1273;23008;-79
2022/07/26 02:54:51;;;;;;;7.70;4.20;;;;;;;21.72;45.17;99531.17;108765;1273;22035;-78
2022/07/26 02:57:26;;;;;;;10.10;5.10;;;;;;;21.75;45.21;99539.63;108699;1273;23619;-78
2022/07/26 03:00:22;;;;;;;6.40;3.80;;;;;;;21.77;45.37;99538.36;108982;1273;22961;-79
2022/07/26 03:02:52;;;;;;;4.90;3.60;;;;;;;21.78;45.35;99533.30;108737;1273;23609;-78
2022/07/26 03:05:24;;;;;;;6.00;4.20;;;;;;;21.78;45.28;99536.30;108748;1271;22016;-78
2022/07/26 03:07:55;;;;;;;6.80;3.90;;;;;;;21.77;45.28;99539.36;108547;1270;22546;-79
2022/07/26 03:10:26;;;;;;;4.80;3.80;;;;;;;21.78;45.02;99552.16;108881;1270;21990;-79
2022/07/26 03:13:03;;;;;;;5.30;4.00;;;;;;;21.77;45.11;99575.61;108841;1270;22042;-79
2022/07/26 03:15:40;;;;;;;7.90;3.80;;;;;;;21.79;45.33;99589.54;108815;1270;22214;-79
2022/07/26 03:18:13;;;;;;;8.20;4.50;;;;;;;21.79;45.52;99585.61;108407;1276;23696;-78
2022/07/26 03:20:49;;;;;;;5.50;3.70;;;;;;;21.80;45.49;99586.75;107958;1281;22003;-78
2022/07/26 03:23:21;;;;;;;7.50;4.20;;;;;;;21.80;45.68;99595.41;108179;1280;21958;-78
2022/07/26 03:26:02;;;;;;;7.20;4.30;;;;;;;21.77;45.69;99598.95;107834;1280;22009;-78
2022/07/26 03:28:32;;;;;;;9.20;4.50;;;;;;;21.74;45.94;99595.75;108044;1280;23865;-78
2022/07/26 03:31:04;;;;;;;8.70;4.70;;;;;;;21.73;46.15;99596.11;108032;1281;22875;-78
2022/07/26 03:33:39;;;;;;;11.10;4.80;;;;;;;21.73;46.22;99603.59;108021;1281;23956;-78
2022/07/26 03:36:13;;;;;;;7.70;4.70;;;;;;;21.73;46.45;99601.55;107982;1280;23776;-77
2022/07/26 03:38:43;;;;;;;6.40;4.40;;;;;;;21.72;47.02;99594.60;108113;1276;22676;-79
2022/07/26 03:41:13;;;;;;;11.30;5.10;;;;;;;21.67;47.89;99580.54;108063;1279;23710;-77
2022/07/26 03:43:42;;;;;;;11.90;5.40;;;;;;;21.61;49.07;99576.05;108249;1274;22054;-77
2022/07/26 03:46:11;;;;;;;8.20;5.00;;;;;;;21.54;50.09;99578.48;108325;1279;21990;-78
2022/07/26 03:48:44;;;;;;;9.10;4.90;;;;;;;21.44;50.88;99587.88;108359;1279;23100;-78
2022/07/26 03:51:15;;;;;;;8.60;5.40;;;;;;;21.35;51.61;99589.92;108296;1279;21995;-78
2022/07/26 03:53:44;;;;;;;6.80;5.10;;;;;;;21.31;52.34;99590.38;108410;1276;22683;-78
2022/07/26 03:56:30;;;;;;;10.70;5.50;;;;;;;21.29;53.02;99592.94;108408;1273;23600;-75
2022/07/26 03:59:04;;;;;;;9.40;5.50;;;;;;;21.24;53.72;99584.73;108701;1273;22077;-77
2022/07/26 04:01:40;;;;;;;7.50;5.80;;;;;;;21.22;54.24;99575.04;108742;1273;21996;-78
2022/07/26 04:04:12;;;;;;;7.20;5.30;;;;;;;21.23;54.73;99570.81;108877;1267;21996;-78
2022/07/26 04:06:46;;;;;;;7.10;5.50;;;;;;;21.23;55.14;99580.32;108982;1264;22846;-77
2022/07/26 04:09:31;;;;;;;;;;;;;;;;;;;;;
2022/07/26 04:12:08;;;;;;;8.30;5.40;;;;;;;21.15;55.79;99594.16;108978;1267;22101;-78
2022/07/26 04:14:43;;;;;;;8.50;5.70;;;;;;;21.13;55.97;99597.96;108832;1267;22095;-77
2022/07/26 04:17:15;;;;;;;8.60;5.90;;;;;;;21.14;56.09;99592.98;108544;1273;23810;-77
2022/07/26 04:19:47;;;;;;;6.90;5.00;;;;;;;21.18;56.41;99579.04;108269;1277;21988;-77
2022/07/26 04:22:22;;;;;;;8.70;6.50;;;;;;;21.21;56.64;99571.70;108437;1275;21971;-77
2022/07/26 04:24:53;;;;;;;8.20;5.80;;;;;;;21.26;57.14;99571.58;108452;1275;21994;-78
2022/07/26 04:27:22;;;;;;;11.50;5.60;;;;;;;21.27;57.29;99580.94;108244;1279;22515;-78
2022/07/26 04:29:53;;;;;;;8.50;5.10;;;;;;;21.26;57.57;99589.04;107991;1282;22160;-78
2022/07/26 04:32:22;;;;;;;10.60;6.00;;;;;;;21.23;57.84;99591.33;108098;1281;22239;-78
2022/07/26 04:34:54;;;;;;;9.40;6.70;;;;;;;21.23;58.30;99590.69;108263;1277;23678;-78
2022/07/26 04:37:39;;;;;;;7.20;5.40;;;;;;;21.21;58.19;99589.48;108631;1276;23120;-77
2022/07/26 04:40:14;;;;;;;8.20;5.80;;;;;;;21.20;58.42;99604.73;108658;1273;22293;-78
2022/07/26 04:42:46;;;;;;;10.10;5.40;;;;;;;21.19;58.46;99610.48;108539;1276;23101;-78
2022/07/26 04:45:26;;;;;;;7.80;5.10;;;;;;;21.17;58.40;99612.88;108548;1275;21999;-77
2022/07/26 04:48:05;;;;;;;6.70;6.00;;;;;;;21.18;58.41;99615.89;108766;1268;21987;-79
2022/07/26 04:50:44;;;;;;;9.20;5.80;;;;;;;21.17;58.40;99634.63;108917;1270;22023;-78
2022/07/26 04:53:33;;;;;;;11.60;7.20;;;;;;;21.11;58.70;99652.35;109300;1264;21985;-79
2022/07/26 04:56:28;;;;;;;10.60;7.70;;;;;;;21.06;58.87;99666.11;108708;1270;23795;-76
2022/07/26 04:59:24;;;;;;;7.70;6.90;;;;;;;21.04;59.25;99649.92;108863;1270;23697;-77
2022/07/26 05:02:08;;;;;;;15.00;8.80;;;;;;;21.07;59.58;99640.39;108707;1273;22235;-78
2022/07/26 05:04:45;;;;;;;12.60;6.60;;;;;;;21.08;59.67;99643.56;108525;1274;22050;-77
2022/07/26 05:07:48;;;;;;;7.90;7.00;;;;;;;21.08;59.99;99638.69;108430;1276;23267;-77
2022/07/26 05:10:54;;;;;;;11.30;8.30;;;;;;;21.05;60.22;99625.92;108376;1279;22188;-78
2022/07/26 05:13:29;;;;;;;8.80;7.90;;;;;;;21.03;60.63;99636.91;108247;1276;22666;-78
2022/07/26 05:16:05;;;;;;;11.00;9.30;;;;;;;21.02;60.99;99662.80;108543;1275;22007;-76
2022/07/26 05:18:40;;;;;;;10.70;8.10;;;;;;;21.02;61.33;99672.02;108445;1276;22995;-74
2022/07/26 05:21:17;;;;;;;8.70;7.90;;;;;;;21.01;61.71;99673.57;108683;1270;21994;-74
2022/07/26 05:23:46;;;;;;;10.60;9.30;;;;;;;21.03;62.25;99674.66;108697;1270;23776;-74
2022/07/26 05:26:15;;;;;;;10.20;9.20;;;;;;;21.04;62.51;99674.50;108668;1273;22000;-74
2022/07/26 05:28:44;;;;;;;11.50;10.30;;;;;;;21.05;62.78;99671.42;108567;1270;21981;-75
2022/07/26 05:31:13;;;;;;;10.50;9.50;;;;;;;21.05;63.06;99680.59;108700;1273;21995;-75
2022/07/26 05:33:43;;;;;;;10.70;9.60;;;;;;;21.07;63.45;99693.35;108839;1270;21981;-75
2022/07/26 05:36:12;;;;;;;11.80;10.80;;;;;;;21.10;63.91;99694.41;108414;1276;21988;-75
2022/07/26 05:38:42;;;;;;;13.70;12.40;;;;;;;21.12;64.12;99688.08;108277;1279;22001;-75
2022/07/26 05:41:11;;;;;;;11.40;10.30;;;;;;;21.15;64.60;99693.65;108128;1279;24224;-75
2022/07/26 05:43:41;;;;;;;11.70;10.50;;;;;;;21.20;65.02;99691.23;108179;1280;22456;-74
2022/07/26 05:46:11;;;;;;;14.40;12.10;;;;;;;21.26;65.51;99685.79;108282;1278;23665;-75
2022/07/26 05:48:41;;;;;;;12.90;11.60;;;;;;;21.34;65.73;99692.18;108398;1276;21991;-75
2022/07/26 05:51:11;;;;;;;14.40;11.20;;;;;;;21.40;65.55;99699.82;108679;1273;22044;-75
2022/07/26 05:53:40;;;;;;;13.50;12.00;;;;;;;21.44;65.55;99702.01;108497;1270;23093;-76
2022/07/26 05:56:09;;;;;;;14.00;11.50;;;;;;;21.49;66.03;99712.53;108958;1264;21970;-75
2022/07/26 05:58:38;;;;;;;13.00;11.60;;;;;;;21.61;66.46;99715.48;109557;1263;21985;-76
2022/07/26 06:01:07;;;;;;;15.70;11.40;;;;;;;21.69;66.13;99719.90;109474;1266;22868;-77
2022/07/26 06:03:37;;;;;;;11.70;10.60;;;;;;;21.73;65.97;99726.39;109259;1267;23066;-77
2022/07/26 06:06:06;;;;;;;12.10;11.00;;;;;;;21.75;65.87;99738.88;109265;1267;21972;-77
2022/07/26 06:08:36;;;;;;;12.40;10.80;;;;;;;21.78;65.80;99745.68;109542;1263;21996;-77
2022/07/26 06:11:12;;;;;;;15.80;12.20;;;;;;;21.77;65.84;99758.20;109095;1269;23567;-77
2022/07/26 06:13:51;;;;;;;16.10;11.20;;;;;;;21.78;65.93;99763.70;108941;1267;24363;-77
2022/07/26 06:16:24;;;;;;;13.10;12.00;;;;;;;21.76;66.01;99760.88;109054;1269;23614;-77
2022/07/26 06:18:59;;;;;;;12.40;11.20;;;;;;;21.76;66.22;99760.51;109086;1269;23042;-77
2022/07/26 06:21:28;;;;;;;12.80;11.60;;;;;;;21.74;65.99;99761.52;109072;1267;21984;-77
2022/07/26 06:23:57;;;;;;;12.10;11.00;;;;;;;21.72;66.32;99770.90;108919;1267;21996;-76
2022/07/26 06:26:26;;;;;;;12.60;11.30;;;;;;;21.69;66.38;99785.06;109153;1267;22869;-77
2022/07/26 06:28:55;;;;;;;11.40;10.30;;;;;;;21.63;66.56;99793.92;108640;1270;23797;-78
2022/07/26 06:31:28;;;;;;;12.60;11.50;;;;;;;21.57;66.89;99800.23;109049;1270;22026;-77
2022/07/26 06:34:02;;;;;;;12.60;11.40;;;;;;;21.50;67.16;99803.70;108937;1270;22995;-77
2022/07/26 06:36:31;;;;;;;11.80;10.50;;;;;;;21.46;67.53;99800.15;109050;1267;22008;-77
2022/07/26 06:39:00;;;;;;;12.90;11.70;;;;;;;21.37;67.84;99791.67;108715;1273;23024;-77
2022/07/26 06:41:29;;;;;;;12.40;11.20;;;;;;;21.34;68.18;99791.70;108699;1273;23742;-77
2022/07/26 06:44:02;;;;;;;13.10;11.90;;;;;;;21.29;68.45;99790.88;108540;1273;23672;-78
2022/07/26 06:46:34;;;;;;;12.60;11.50;;;;;;;21.25;68.90;99791.63;108775;1270;23589;-77
2022/07/26 06:49:04;;;;;;;17.50;12.00;;;;;;;21.24;69.33;99794.67;109044;1267;22085;-77
2022/07/26 06:51:37;;;;;;;13.10;12.00;;;;;;;21.24;69.78;99800.15;109051;1270;22056;-77
2022/07/26 06:54:10;;;;;;;13.70;12.00;;;;;;;21.19;69.61;99807.08;108843;1270;22146;-79
2022/07/26 06:56:39;;;;;;;13.40;12.20;;;;;;;21.16;69.92;99805.75;108994;1263;21982;-77
2022/07/26 06:59:09;;;;;;;14.50;12.60;;;;;;;21.14;70.13;99808.89;108938;1270;21972;-78
2022/07/26 07:01:52;;;;;;;14.90;13.10;;;;;;;21.13;70.46;99816.04;108875;1270;22126;-79
2022/07/26 07:04:33;;;;;;;14.70;13.20;;;;;;;21.12;70.84;99817.48;108941;1270;21997;-77
2022/07/26 07:07:07;;;;;;;14.50;12.50;;;;;;;21.14;71.14;99817.66;108382;1278;23695;-78
2022/07/26 07:09:45;;;;;;;12.90;11.80;;;;;;;21.19;71.39;99811.64;108380;1276;21988;-78
2022/07/26 07:12:38;;;;;;;13.00;11.80;;;;;;;21.19;71.44;99810.46;108488;1276;23739;-77
2022/07/26 07:15:13;;;;;;;16.80;11.40;;;;;;;21.22;71.53;99814.86;108635;1276;22022;-77
2022/07/26 07:17:51;;;;;;;11.80;10.70;;;;;;;21.25;71.46;99820.80;108670;1273;22018;-77
2022/07/26 07:20:27;;;;;;;12.70;10.70;;;;;;;21.25;71.42;99822.78;108772;1270;21996;-77
2022/07/26 07:23:03;;;;;;;13.80;11.90;;;;;;;21.26;71.53;99825.00;108795;1273;22006;-79
2022/07/26 07:25:42;;;;;;;13.30;12.20;;;;;;;21.29;71.53;99833.10;108608;1272;21991;-76
2022/07/26 07:28:19;;;;;;;11.90;10.70;;;;;;;21.31;71.62;99841.82;108846;1267;21985;-78
2022/07/26 07:30:51;;;;;;;12.00;10.70;;;;;;;21.32;71.63;99853.23;108689;1273;23689;-78
2022/07/26 07:33:20;;;;;;;14.40;13.10;;;;;;;21.33;71.59;99858.85;108565;1273;22086;-78
2022/07/26 07:35:53;;;;;;;42.00;13.50;;;;;;;21.35;71.70;99861.61;108690;1273;22026;-81
2022/07/26 07:38:23;;;;;;;11.80;10.50;;;;;;;21.37;71.55;99860.61;108635;1276;23677;-82
2022/07/26 07:40:53;;;;;;;22.20;13.30;;;;;;;21.37;71.51;99866.86;108625;1277;22870;-81
2022/07/26 07:43:23;;;;;;;16.10;11.50;;;;;;;21.36;71.47;99871.20;108410;1279;21976;-81
2022/07/26 07:45:55;;;;;;;11.50;9.40;;;;;;;21.36;71.31;99875.88;108300;1282;22278;-81
2022/07/26 07:48:25;;;;;;;9.90;8.90;;;;;;;21.36;71.13;99876.58;108276;1281;22775;-81
2022/07/26 07:50:54;;;;;;;10.50;9.30;;;;;;;21.34;70.94;99873.85;108422;1280;22792;-81
2022/07/26 07:53:23;;;;;;;12.30;9.50;;;;;;;21.33;71.02;99874.30;108254;1283;23679;-80
2022/07/26 07:55:54;;;;;;;11.70;10.50;;;;;;;21.33;71.06;99876.09;108252;1283;22011;-82
2022/07/26 07:58:23;;;;;;;10.80;9.60;;;;;;;21.32;71.07;99883.11;108094;1283;22782;-81
2022/07/26 08:00:55;;;;;;;11.70;10.40;;;;;;;21.31;70.94;99890.84;108263;1282;23068;-80
2022/07/26 08:03:24;;;;;;;10.60;9.20;;;;;;;21.29;70.95;99890.52;108446;1276;23114;-81
2022/07/26 08:06:09;;;;;;;11.20;9.90;;;;;;;21.26;71.09;99891.02;109041;1273;22444;-82
2022/07/26 08:08:38;;;;;;;11.60;9.70;;;;;;;21.25;71.07;99894.23;109159;1270;24453;-80
2022/07/26 08:11:09;;;;;;;10.70;9.40;;;;;;;21.25;71.19;99900.91;109260;1264;22015;-81
2022/07/26 08:13:40;;;;;;;12.50;10.20;;;;;;;21.26;71.23;99911.81;109606;1264;22039;-81
2022/07/26 08:16:15;;;;;;;11.40;9.80;;;;;;;21.26;71.33;99921.17;109689;1262;21991;-80
2022/07/26 08:18:49;;;;;;;11.80;9.40;;;;;;;21.28;71.40;99927.63;109700;1261;22436;-78
2022/07/26 08:21:31;;;;;;;9.50;8.20;;;;;;;21.28;71.47;99932.64;109576;1263;23506;-77
2022/07/26 08:24:02;;;;;;;8.70;7.60;;;;;;;21.28;71.49;99938.98;108981;1270;23069;-77
2022/07/26 08:26:31;;;;;;;8.70;8.00;;;;;;;21.28;71.27;99944.28;108869;1267;21991;-78
2022/07/26 08:29:05;;;;;;;9.30;6.80;;;;;;;21.26;71.15;99949.54;108887;1270;22002;-78
2022/07/26 08:31:34;;;;;;;8.00;6.90;;;;;;;21.27;71.16;99956.25;108903;1270;21993;-77
2022/07/26 08:34:03;;;;;;;9.30;7.00;;;;;;;21.28;70.95;99963.64;108692;1273;23118;-77
2022/07/26 08:36:32;;;;;;;8.30;7.30;;;;;;;21.30;70.70;99971.89;108664;1273;22009;-77
2022/07/26 08:39:01;;;;;;;9.30;6.80;;;;;;;21.30;70.58;99969.65;108611;1273;23636;-77
2022/07/26 08:41:32;;;;;;;8.10;6.20;;;;;;;21.29;70.04;99969.35;108399;1276;22764;-77
2022/07/26 08:44:10;;;;;;;7.50;6.10;;;;;;;21.28;70.14;99972.78;108334;1279;22002;-78
2022/07/26 08:46:41;;;;;;;10.10;6.30;;;;;;;21.31;70.21;99978.73;108389;1279;22011;-78
2022/07/26 08:49:12;;;;;;;;;;;;;;;21.39;70.26;99982.94;108471;1275;21974;-78
2022/07/26 08:51:43;;;;;;;10.60;7.20;;;;;;;21.37;70.11;99988.20;108569;1270;23073;-78
2022/07/26 08:54:14;;;;;;;9.80;6.30;;;;;;;21.37;69.69;99992.81;108904;1270;21994;-78
2022/07/26 08:56:52;;;;;;;10.60;6.70;;;;;;;21.40;69.04;99997.05;108877;1270;23690;-78
2022/07/26 08:59:23;;;;;;;7.10;5.60;;;;;;;21.41;68.77;100003.13;109055;1263;22204;-78
2022/07/26 09:02:03;;;;;;;9.50;7.40;;;;;;;21.40;68.39;100003.50;109925;1263;23881;-78
2022/07/26 09:04:35;;;;;;;8.50;5.70;;;;;;;21.41;68.38;100012.65;109584;1262;21992;-77
2022/07/26 09:07:17;;;;;;;8.70;5.70;;;;;;;21.44;68.25;100018.34;109721;1263;23618;-80
2022/07/26 09:10:10;;;;;;;10.10;5.90;;;;;;;21.46;67.74;100022.60;108936;1267;22009;-78
2022/07/26 09:12:42;;;;;;;7.60;5.80;;;;;;;21.43;67.16;100024.81;108920;1270;22042;-81
2022/07/26 09:15:22;;;;;;;8.00;5.70;;;;;;;21.39;66.96;100025.31;109041;1270;22865;-84
2022/07/26 09:17:56;;;;;;;9.00;5.90;;;;;;;21.41;67.31;100025.86;109031;1270;21983;-81
2022/07/26 09:20:29;;;;;;;8.50;5.40;;;;;;;21.45;67.31;100029.63;109121;1267;21989;-80
2022/07/26 09:23:15;;;;;;;6.80;5.80;;;;;;;21.50;67.37;100037.02;109234;1267;22445;-81
2022/07/26 09:25:53;;;;;;;10.10;6.80;;;;;;;21.54;67.32;100043.63;109208;1267;21985;-80
2022/07/26 09:28:31;;;;;;;9.30;6.00;;;;;;;21.59;67.39;100042.67;108899;1270;23061;-80
2022/07/26 09:31:04;;;;;;;10.00;6.00;;;;;;;21.64;67.29;100050.16;109447;1270;21999;-80
2022/07/26 09:33:47;;;;;;;5.70;5.10;;;;;;;21.74;67.35;100049.48;109040;1269;22032;-81
2022/07/26 09:36:29;;;;;;;6.30;5.30;;;;;;;21.79;67.14;100051.17;109055;1270;22841;-80
2022/07/26 09:39:03;;;;;;;9.50;5.10;;;;;;;21.92;67.35;100049.98;108806;1273;23169;-79
2022/07/26 09:41:39;;;;;;;8.40;5.00;;;;;;;22.11;67.19;100050.70;109021;1273;22000;-80
2022/07/26 09:44:23;;;;;;;6.60;5.30;;;;;;;22.25;66.58;100051.55;108918;1274;23689;-79
2022/07/26 09:46:59;;;;;;;8.00;5.80;;;;;;;22.41;66.23;100049.03;108631;1270;21990;-79
2022/07/26 09:49:29;;;;;;;7.00;5.30;;;;;;;22.67;65.93;100050.25;108696;1272;22021;-79
2022/07/26 09:52:20;;;;;;;10.70;5.80;;;;;;;22.90;65.08;100052.35;108807;1272;22003;-79
2022/07/26 09:54:52;;;;;;;9.90;5.50;;;;;;;23.09;64.16;100055.27;108753;1273;23625;-79
2022/07/26 09:57:24;;;;;;;7.20;5.50;;;;;;;23.22;63.18;100053.27;108808;1268;23771;-79
2022/07/26 09:59:56;;;;;;;8.20;5.10;;;;;;;23.35;62.66;100051.31;109207;1267;21976;-79
2022/07/26 10:02:34;;;;;;;6.50;4.60;;;;;;;23.46;61.51;100054.19;109166;1267;21995;-81
2022/07/26 10:05:12;;;;;;;6.90;5.40;;;;;;;23.50;60.66;100053.52;108774;1273;22926;-79
2022/07/26 10:07:59;;;;;;;11.90;4.00;;;;;;;23.55;60.32;100053.77;109056;1270;22027;-81
2022/07/26 10:10:57;;;;;;;14.20;5.30;;;;;;;23.61;59.69;100059.56;109008;1270;22010;-83
2022/07/26 10:13:30;;;;;;;7.30;5.10;;;;;;;23.64;58.87;100058.06;109081;1270;22098;-82
2022/07/26 10:16:27;;;;;;;7.70;4.30;;;;;;;23.69;58.54;100057.10;109159;1270;23195;-82
2022/07/26 10:19:03;;;;;;;7.50;4.00;;;;;;;23.81;58.27;100063.63;108855;1273;24498;-83
2022/07/26 10:21:40;;;;;;;6.60;3.80;;;;;;;23.91;57.73;100064.28;108712;1275;22079;-82
2022/07/26 10:24:27;;;;;;;6.60;3.90;;;;;;;23.94;56.76;100064.40;109118;1270;23667;-80
2022/07/26 10:27:40;;;;;;;5.90;3.30;;;;;;;23.93;56.24;100065.31;109207;1270;21982;-84
2022/07/26 10:30:18;;;;;;;6.80;3.30;;;;;;;24.01;56.01;100067.14;108806;1273;22556;-79
2022/07/26 10:33:05;;;;;;;6.40;3.50;;;;;;;24.05;54.87;100072.10;109064;1272;23114;-82
2022/07/26 10:35:42;;;;;;;7.10;3.30;;;;;;;24.04;54.62;100073.83;108746;1270;23175;-79
2022/07/26 10:38:28;;;;;;;9.30;3.90;;;;;;;24.11;54.86;100081.95;108756;1270;22039;-77
2022/07/26 10:41:11;;;;;;;7.50;3.00;;;;;;;24.15;54.34;100083.64;109102;1267;23072;-78
2022/07/26 10:44:12;;;;;;;6.60;3.10;;;;;;;24.15;54.16;100083.27;108516;1272;23088;-76
2022/07/26 10:47:00;;;;;;;9.70;3.10;;;;;;;24.15;54.13;100088.06;108699;1273;22951;-82
2022/07/26 10:49:56;;;;;;;5.30;2.60;;;;;;;24.17;54.01;100091.38;108894;1273;22007;-79
2022/07/26 10:52:30;;;;;;;7.50;3.10;;;;;;;24.18;53.36;100090.67;108499;1276;23768;-78
2022/07/26 10:55:06;;;;;;;5.90;3.10;;;;;;;24.17;53.00;100091.86;108396;1275;23045;-79
2022/07/26 10:57:43;;;;;;;8.30;2.90;;;;;;;24.18;52.77;100089.81;108649;1275;21999;-78
2022/07/26 11:00:27;;;;;;;7.90;3.50;;;;;;;24.21;52.91;100094.67;108420;1276;22807;-79
2022/07/26 11:02:59;;;;;;;6.60;3.20;;;;;;;24.27;52.92;100093.13;108739;1272;21984;-79
2022/07/26 11:05:37;;;;;;;7.40;3.90;;;;;;;24.33;52.53;100089.00;109103;1270;21990;-78
2022/07/26 11:08:08;;;;;;;6.60;4.20;;;;;;;24.38;52.34;100090.14;108904;1269;21996;-78
2022/07/26 11:10:48;;;;;;;6.10;3.10;;;;;;;24.43;52.10;100091.27;109178;1262;22001;-78
2022/07/26 11:13:22;;;;;;;7.30;3.40;;;;;;;24.47;51.76;100094.14;109558;1264;22246;-78
2022/07/26 11:16:04;;;;;;;8.70;5.80;;;;;;;24.48;51.56;100092.10;109623;1263;21982;-79
2022/07/26 11:18:42;;;;;;;7.70;4.30;;;;;;;24.52;51.87;100094.80;109378;1264;21944;-79
2022/07/26 11:21:15;;;;;;;7.10;4.70;;;;;;;24.58;51.41;100094.50;109534;1264;21989;-80
2022/07/26 11:23:50;;;;;;;7.00;3.30;;;;;;;24.62;50.60;100089.01;109421;1264;22752;-79
2022/07/26 11:26:44;;;;;;;7.10;4.70;;;;;;;24.66;50.46;100089.54;109248;1264;21979;-79
2022/07/26 11:29:36;;;;;;;13.10;6.60;;;;;;;24.72;50.22;100088.86;108801;1270;21990;-79
2022/07/26 11:32:22;;;;;;;8.90;4.20;;;;;;;24.75;49.91;100084.70;108844;1267;23686;-78
2022/07/26 11:35:00;;;;;;;10.20;3.20;;;;;;;24.82;49.86;100080.16;108750;1270;23052;-80
2022/07/26 11:37:56;;;;;;;9.40;3.00;;;;;;;24.88;49.97;100080.07;108859;1270;22780;-78
2022/07/26 11:40:46;;;;;;;7.20;3.10;;;;;;;24.94;49.84;100085.26;108827;1270;22294;-81
2022/07/26 11:43:19;;;;;;;6.10;2.40;;;;;;;24.91;48.95;100085.74;109147;1269;23628;-79
2022/07/26 11:45:52;;;;;;;6.10;2.70;;;;;;;24.88;48.48;100087.79;108573;1273;22029;-80
2022/07/26 11:48:27;;;;;;;7.80;3.00;;;;;;;24.88;48.17;100086.05;108759;1273;22027;-78
2022/07/26 11:51:39;;;;;;;6.60;3.10;;;;;;;24.85;48.40;100085.02;108706;1273;23657;-78
2022/07/26 11:54:13;;;;;;;6.70;3.50;;;;;;;24.78;48.56;100085.02;108824;1269;21983;-77
2022/07/26 11:57:01;;;;;;;8.80;3.60;;;;;;;24.74;48.60;100081.73;108295;1275;283477;-77
2022/07/26 11:59:36;;;;;;;8.10;3.80;;;;;;;24.70;48.64;100085.23;108423;1276;24491;-77
2022/07/26 12:02:08;;;;;;;11.80;4.90;;;;;;;24.63;48.16;100086.62;108487;1276;22238;-77